Time;durP1;ratioP1;P1;durP2;ratioP2;P2;SDS_P1;SDS_P2;PMS_P1;PMS_P2;Temp;Humidity;BMP_temperature;BMP_pressure;BME280_temperature;BME280_humidity;BME280_pressure;Samples;Min_cycle;Max_cycle;Signal;HPM_P1;HPM_P2
2021/12/24 00:00:45;;;;;;;20.40;11.40;;;12.50;77.20;;;;;;10575303;28;20246;-79
2021/12/24 00:05:48;;;;;;;18.27;11.10;;;12.20;77.30;;;;;;10556855;28;20242;-79
2021/12/24 00:10:58;;;;;;;16.50;11.80;;;12.80;75.90;;;;;;10545853;28;20662;-79
2021/12/24 00:16:26;;;;;;;20.23;11.60;;;13.00;74.80;;;;;;10537069;28;20809;-78
2021/12/24 00:22:12;;;;;;;19.53;11.57;;;12.70;74.90;;;;;;10516027;28;20754;-79
2021/12/24 00:37:34;;;;;;;19.07;11.50;;;13.20;73.20;;;;;;10527543;28;20260;-79
2021/12/24 00:42:38;;;;;;;17.07;11.47;;;13.30;72.50;;;;;;10539706;28;20212;-79
2021/12/24 00:47:42;;;;;;;20.67;13.10;;;13.40;72.70;;;;;;10568876;28;20252;-79
2021/12/24 00:57:54;;;;;;;16.37;10.80;;;13.40;71.70;;;;;;10555228;28;20256;-79
2021/12/24 01:02:58;;;;;;;19.23;12.30;;;13.40;71.50;;;;;;10513866;28;20335;-79
2021/12/24 01:08:07;;;;;;;18.83;11.57;;;13.50;71.20;;;;;;10520867;28;20237;-79
2021/12/24 01:13:10;;;;;;;17.30;11.67;;;13.50;70.70;;;;;;10538180;28;20254;-79
2021/12/24 01:18:23;;;;;;;16.87;10.83;;;13.50;70.60;;;;;;10547826;28;20262;-79
2021/12/24 01:23:39;;;;;;;16.00;10.77;;;13.50;70.50;;;;;;10559523;28;20273;-79
2021/12/24 01:44:24;;;;;;;18.97;11.70;;;13.60;69.60;;;;;;10558778;28;20231;-78
2021/12/24 01:49:27;;;;;;;16.97;11.00;;;13.60;69.50;;;;;;10561432;28;20231;-79
2021/12/24 01:54:30;;;;;;;16.97;11.23;;;13.60;69.40;;;;;;10522984;28;20308;-79
2021/12/24 01:59:33;;;;;;;17.00;10.97;;;13.70;69.20;;;;;;10523722;28;20200;-79
2021/12/24 02:04:35;;;;;;;19.73;13.63;;;13.70;69.00;;;;;;10519212;28;20261;-79
2021/12/24 02:09:38;;;;;;;16.27;11.37;;;13.40;68.00;;;;;;10519663;28;20258;-79
2021/12/24 02:14:41;;;;;;;15.80;10.73;;;13.40;69.40;;;;;;10518346;28;20252;-79
2021/12/24 02:30:29;;;;;;;15.93;10.67;;;13.50;69.00;;;;;;10549983;27;20266;-79
2021/12/24 02:35:32;;;;;;;16.47;10.87;;;13.50;69.10;;;;;;10556640;28;20220;-78
2021/12/24 02:40:37;;;;;;;12.13;9.27;;;13.60;68.90;;;;;;10502767;28;20204;-79
2021/12/24 02:45:42;;;;;;;16.90;10.50;;;13.60;69.00;;;;;;10555845;28;20236;-79
2021/12/24 02:56:09;;;;;;;13.33;9.13;;;13.60;68.70;;;;;;10541918;28;20252;-79
2021/12/24 03:01:23;;;;;;;12.37;9.10;;;13.60;68.60;;;;;;10516830;28;20822;-79
2021/12/24 03:06:29;;;;;;;15.40;10.10;;;13.50;68.50;;;;;;10518995;28;20285;-79
2021/12/24 03:11:32;;;;;;;13.10;9.97;;;13.50;69.10;;;;;;10500878;28;20242;-79
2021/12/24 03:16:36;;;;;;;17.20;12.33;;;13.60;68.40;;;;;;10545023;28;20703;-78
2021/12/24 03:21:51;;;;;;;14.37;9.20;;;13.50;66.90;;;;;;10558009;28;20215;-78
2021/12/24 03:26:53;;;;;;;13.10;9.43;;;13.50;68.40;;;;;;10554675;28;20227;-79
2021/12/24 03:31:57;;;;;;;13.93;9.10;;;13.60;68.20;;;;;;10558156;28;20216;-78
2021/12/24 03:37:03;;;;;;;14.03;9.90;;;13.60;68.10;;;;;;10540883;28;20655;-78
2021/12/24 03:42:08;;;;;;;11.93;8.33;;;13.50;68.30;;;;;;10521528;28;20205;-78
2021/12/24 03:47:15;;;;;;;11.90;7.93;;;13.50;68.30;;;;;;10532500;28;20252;-78
2021/12/24 03:57:49;;;;;;;15.20;8.37;;;13.50;68.40;;;;;;10556612;28;20259;-79
2021/12/24 04:03:30;;;;;;;13.50;8.43;;;13.20;68.80;;;;;;10532921;28;20292;-79
2021/12/24 04:08:53;;;;;;;9.40;7.20;;;13.30;68.70;;;;;;10537239;28;20693;-79
2021/12/24 04:14:17;;;;;;;9.43;7.10;;;13.30;68.80;;;;;;10513725;28;20290;-78
2021/12/24 04:24:50;;;;;;;8.37;6.97;;;13.20;69.30;;;;;;10572793;28;20840;-79
2021/12/24 04:24:56;;;;;;;9.07;7.50;;;13.30;68.80;;;;;;10556934;28;20236;-79
2021/12/24 04:30:12;;;;;;;8.97;7.30;;;13.20;69.30;;;;;;10552930;28;20624;-79
2021/12/24 05:01:50;;;;;;;8.03;6.30;;;13.30;68.90;;;;;;10522358;28;20356;-79
2021/12/24 05:07:02;;;;;;;9.03;6.70;;;13.30;69.00;;;;;;10552060;28;20536;-79
2021/12/24 05:12:06;;;;;;;8.63;6.20;;;13.00;69.50;;;;;;10563636;28;20670;-79
2021/12/24 05:22:52;;;;;;;8.80;6.07;;;13.00;69.40;;;;;;10541126;28;20283;-79
2021/12/24 05:27:58;;;;;;;6.07;5.47;;;13.00;69.50;;;;;;10555518;28;20216;-79
2021/12/24 05:33:00;;;;;;;8.37;6.37;;;13.10;69.40;;;;;;10536877;28;20289;-79
2021/12/24 05:38:03;;;;;;;7.57;6.20;;;13.10;69.30;;;;;;10519796;28;20330;-79
2021/12/24 05:43:06;;;;;;;8.60;6.07;;;13.20;69.00;;;;;;10545650;28;20247;-79
2021/12/24 05:48:09;;;;;;;8.57;6.50;;;13.40;68.60;;;;;;10558697;28;20250;-79
2021/12/24 05:53:11;;;;;;;7.03;5.80;;;13.30;68.50;;;;;;10562644;28;20725;-79
2021/12/24 05:58:30;;;;;;;7.13;5.57;;;13.20;68.70;;;;;;10560969;28;20251;-79
2021/12/24 06:03:33;;;;;;;9.13;6.43;;;13.00;69.50;;;;;;10530541;28;20248;-79
2021/12/24 06:08:36;;;;;;;8.93;6.90;;;13.00;69.40;;;;;;10549484;28;20266;-79
2021/12/24 06:13:40;;;;;;;7.13;5.37;;;13.10;69.50;;;;;;10560194;28;20745;-79
2021/12/24 06:18:42;;;;;;;5.90;5.20;;;13.10;69.20;;;;;;10579131;28;20309;-79
2021/12/24 06:23:47;;;;;;;6.17;5.10;;;13.10;69.10;;;;;;10556258;28;20225;-79
2021/12/24 06:28:49;;;;;;;6.33;4.67;;;13.10;69.30;;;;;;10518574;28;20199;-79
2021/12/24 06:33:52;;;;;;;6.73;5.20;;;13.10;69.40;;;;;;10565401;28;20270;-79
2021/12/24 06:38:55;;;;;;;7.27;5.23;;;13.00;69.50;;;;;;10579185;28;20255;-79
2021/12/24 06:43:58;;;;;;;8.83;5.23;;;12.80;69.90;;;;;;10540029;28;20201;-79
2021/12/24 06:49:00;;;;;;;7.53;5.90;;;12.90;70.30;;;;;;10542224;28;20303;-79
2021/12/24 06:54:04;;;;;;;7.40;5.33;;;12.90;69.90;;;;;;10550727;28;20215;-79
2021/12/24 06:59:07;;;;;;;7.97;6.80;;;12.70;70.30;;;;;;10558217;28;20323;-79
2021/12/24 07:04:10;;;;;;;7.33;5.80;;;12.90;69.70;;;;;;10557289;28;20198;-79
2021/12/24 07:09:15;;;;;;;8.50;6.33;;;13.00;69.40;;;;;;10559207;28;20243;-79
2021/12/24 07:14:18;;;;;;;6.27;5.10;;;13.00;69.30;;;;;;10557124;28;20246;-79
2021/12/24 07:19:22;;;;;;;7.70;5.43;;;13.10;69.50;;;;;;10541425;28;20269;-79
2021/12/24 07:24:25;;;;;;;10.00;7.13;;;13.00;69.70;;;;;;10542659;28;20596;-79
2021/12/24 07:29:28;;;;;;;6.97;5.13;;;12.90;68.10;;;;;;10553655;28;20290;-82
2021/12/24 07:34:30;;;;;;;5.43;4.93;;;12.70;70.30;;;;;;10569612;28;20261;-79
2021/12/24 07:39:33;;;;;;;6.53;4.83;;;13.00;69.80;;;;;;10533504;28;20327;-79
2021/12/24 07:44:36;;;;;;;6.90;5.30;;;13.10;69.30;;;;;;10560963;28;20234;-79
2021/12/24 07:49:41;;;;;;;5.07;4.57;;;13.00;69.40;;;;;;10551947;28;20242;-79
2021/12/24 07:54:47;;;;;;;6.43;5.20;;;12.70;69.90;;;;;;10572982;28;20617;-79
2021/12/24 08:00:11;;;;;;;8.47;5.70;;;12.70;70.40;;;;;;10553019;28;20256;-79
2021/12/24 08:05:22;;;;;;;12.43;8.67;;;12.80;70.10;;;;;;10579986;28;20279;-80
2021/12/24 08:10:27;;;;;;;5.40;4.30;;;12.60;69.20;;;;;;10558714;28;20228;-79
2021/12/24 08:15:29;;;;;;;6.53;5.40;;;12.30;71.70;;;;;;10574684;28;20680;-79
2021/12/24 08:20:32;;;;;;;5.67;4.57;;;12.20;71.40;;;;;;10575583;28;20236;-79
2021/12/24 08:25:34;;;;;;;5.77;4.60;;;12.60;71.10;;;;;;10554467;28;20200;-79
2021/12/24 08:30:37;;;;;;;5.27;4.77;;;12.50;71.20;;;;;;10514347;28;20694;-80
2021/12/24 08:35:39;;;;;;;8.10;5.07;;;12.60;71.10;;;;;;10536509;28;20608;-79
2021/12/24 08:40:42;;;;;;;23.43;15.70;;;12.70;70.50;;;;;;10551704;28;20227;-79
2021/12/24 08:45:44;;;;;;;7.17;4.70;;;5.50;83.60;;;;;;10540894;28;20309;-79
2021/12/24 08:50:48;;;;;;;9.77;5.67;;;10.00;92.10;;;;;;10554034;28;20196;-79
2021/12/24 08:55:51;;;;;;;7.17;5.53;;;11.60;83.80;;;;;;10563116;28;20221;-78
2021/12/24 09:00:54;;;;;;;7.03;4.97;;;12.30;79.70;;;;;;10571196;28;20235;-80
2021/12/24 09:05:56;;;;;;;8.17;5.17;;;12.50;77.90;;;;;;10581148;28;20268;-79
2021/12/24 09:11:00;;;;;;;6.47;4.90;;;12.50;77.30;;;;;;10562785;28;20223;-80
2021/12/24 09:16:07;;;;;;;6.00;4.53;;;12.80;75.00;;;;;;10540905;28;20290;-79
2021/12/24 09:21:15;;;;;;;5.77;4.20;;;12.80;75.00;;;;;;10542074;28;20232;-80
2021/12/24 09:26:23;;;;;;;21.03;13.43;;;13.00;74.40;;;;;;10550431;28;20233;-78
2021/12/24 09:31:26;;;;;;;25.97;15.00;;;6.10;93.10;;;;;;10568141;28;20649;-79
2021/12/24 09:36:29;;;;;;;25.83;15.93;;;6.00;92.50;;;;;;10570116;28;20252;-79
2021/12/24 09:41:32;;;;;;;26.73;14.30;;;3.10;99.90;;;;;;10544990;28;20202;-78
2021/12/24 09:46:40;;;;;;;23.30;13.00;;;8.60;91.20;;;;;;10519810;28;20689;-79
2021/12/24 09:51:46;;;;;;;21.63;13.03;;;6.00;94.90;;;;;;10539046;28;20259;-78
2021/12/24 09:56:50;;;;;;;24.03;13.73;;;3.60;99.90;;;;;;10565956;28;20298;-78
2021/12/24 10:01:56;;;;;;;28.77;15.37;;;3.40;99.90;;;;;;10223301;28;10000571;-78
2021/12/24 10:07:10;;;;;;;24.13;15.67;;;3.40;99.90;;;;;;10578010;28;20286;-78
2021/12/24 10:12:18;;;;;;;26.70;15.37;;;2.70;99.90;;;;;;10571727;28;20259;-77
2021/12/24 10:17:34;;;;;;;34.07;16.97;;;2.30;99.90;;;;;;10573741;28;20256;-78
2021/12/24 10:22:53;;;;;;;40.10;20.43;;;2.30;99.90;;;;;;10547075;28;20288;-78
2021/12/24 10:27:56;;;;;;;54.87;25.57;;;2.30;99.90;;;;;;10567599;28;20240;-78
2021/12/24 10:33:09;;;;;;;48.80;24.40;;;2.20;99.90;;;;;;10540526;28;20284;-79
2021/12/24 10:38:25;;;;;;;39.57;21.73;;;2.20;99.90;;;;;;10529012;28;20310;-79
2021/12/24 10:43:35;;;;;;;32.90;18.50;;;3.20;99.90;;;;;;10542452;27;20697;-79
2021/12/24 10:48:47;;;;;;;34.80;19.30;;;2.60;99.90;;;;;;10574866;28;20253;-79
2021/12/24 10:54:06;;;;;;;32.73;19.23;;;2.10;99.90;;;;;;10569325;28;20274;-78
2021/12/24 10:59:08;;;;;;;31.67;18.43;;;2.00;99.90;;;;;;10547038;28;20312;-79
2021/12/24 11:04:11;;;;;;;35.23;19.13;;;2.60;99.90;;;;;;10552990;28;20273;-77
2021/12/24 11:09:13;;;;;;;34.77;18.73;;;3.20;99.90;;;;;;10560627;28;20684;-79
2021/12/24 11:14:20;;;;;;;30.13;16.20;;;3.50;99.90;;;;;;10536810;28;20241;-78
2021/12/24 11:19:27;;;;;;;24.90;12.87;;;3.50;99.90;;;;;;10538365;28;20252;-78
2021/12/24 11:24:30;;;;;;;19.40;11.90;;;5.00;99.90;;;;;;10537930;28;20267;-78
2021/12/24 11:29:36;;;;;;;23.50;13.57;;;9.00;99.90;;;;;;10547093;28;20250;-78
2021/12/24 11:34:40;;;;;;;21.00;12.30;;;10.60;93.00;;;;;;10558477;28;20213;-78
2021/12/24 11:39:42;;;;;;;18.77;12.07;;;11.30;89.30;;;;;;10556497;28;20252;-81
2021/12/24 11:44:45;;;;;;;21.03;12.37;;;11.70;84.90;;;;;;10566609;28;20749;-78
2021/12/24 11:49:48;;;;;;;37.23;19.70;;;11.80;82.90;;;;;;10549970;28;20233;-79
2021/12/24 11:54:50;;;;;;;22.47;12.70;;;7.40;92.90;;;;;;10542893;28;20202;-79
2021/12/24 11:59:54;;;;;;;26.20;15.43;;;8.00;99.90;;;;;;10538716;28;20290;-79
2021/12/24 12:05:14;;;;;;;18.37;10.23;;;10.80;91.10;;;;;;10567435;28;20290;-79
2021/12/24 12:10:50;;;;;;;17.20;10.73;;;11.50;92.60;;;;;;10533732;28;20557;-79
2021/12/24 12:15:57;;;;;;;17.80;10.23;;;11.90;90.40;;;;;;10543311;28;20285;-79
2021/12/24 12:21:15;;;;;;;15.77;10.43;;;12.10;88.50;;;;;;10555917;28;20245;-79
2021/12/24 12:26:52;;;;;;;44.57;26.73;;;12.30;85.90;;;;;;10541057;28;20229;-79
2021/12/24 12:32:06;;;;;;;43.13;24.57;;;6.10;92.60;;;;;;10362657;28;20790;-78
2021/12/24 12:37:26;;;;;;;21.60;11.60;;;3.80;99.90;;;;;;10399403;28;20317;-78
2021/12/24 12:42:54;;;;;;;37.13;19.27;;;7.10;99.90;;;;;;10384729;28;20599;-78
2021/12/24 12:48:00;;;;;;;29.00;15.90;;;5.20;99.90;;;;;;10401319;28;20305;-78
2021/12/24 12:53:25;;;;;;;27.60;17.77;;;5.90;99.90;;;;;;10385464;28;20536;-78
2021/12/24 12:58:27;;;;;;;44.43;24.40;;;7.10;96.50;;;;;;10354030;28;20266;-77
2021/12/24 13:03:31;;;;;;;40.20;21.13;;;2.40;99.90;;;;;;10375934;28;20270;-78
2021/12/24 13:08:36;;;;;;;27.87;14.43;;;2.00;99.90;;;;;;10549458;28;20609;-79
2021/12/24 13:13:54;;;;;;;22.10;12.53;;;6.60;99.90;;;;;;10533021;28;20595;-79
2021/12/24 13:19:20;;;;;;;22.67;13.60;;;9.60;99.90;;;;;;10516753;28;20710;-79
2021/12/24 13:24:21;;;;;;;27.23;14.83;;;8.20;90.70;;;;;;10547166;28;20194;-79
2021/12/24 13:29:24;;;;;;;24.67;12.90;;;2.50;99.90;;;;;;10560115;28;20258;-80
2021/12/24 13:34:26;;;;;;;26.50;13.73;;;6.50;99.90;;;;;;10483361;22;20914;-91
2021/12/24 13:39:29;;;;;;;19.50;12.87;;;8.70;94.70;;;;;;10397382;28;20316;-91
2021/12/24 13:44:34;;;;;;;19.80;11.67;;;10.30;87.90;;;;;;10411920;28;20565;-90
2021/12/24 13:50:05;;;;;;;16.57;9.73;;;11.00;82.00;;;;;;10397223;28;20567;-90
2021/12/24 13:55:18;;;;;;;23.03;12.37;;;11.50;79.30;;;;;;10414953;28;20314;-90
2021/12/24 14:00:21;;;;;;;13.80;10.27;;;12.00;76.40;;;;;;10396033;28;20675;-90
2021/12/24 14:05:25;;;;;;;13.67;9.33;;;11.80;76.80;;;;;;10395837;28;20619;-90
2021/12/24 14:10:27;;;;;;;14.37;8.87;;;12.20;75.40;;;;;;10396389;28;20263;-90
2021/12/24 14:15:31;;;;;;;15.07;9.27;;;;;;;;;;10394974;28;20252;-90
2021/12/24 14:26:11;;;;;;;12.03;8.30;;;12.40;74.20;;;;;;10246055;29;20244;-90
2021/12/24 14:31:14;;;;;;;16.37;8.60;;;11.80;75.40;;;;;;10229261;29;20298;-90
2021/12/24 14:36:18;;;;;;;15.23;8.90;;;12.50;74.10;;;;;;10245799;28;20261;-89
2021/12/24 14:41:23;;;;;;;11.77;7.57;;;12.50;73.50;;;;;;10245583;29;20328;-90
2021/12/24 14:46:25;;;;;;;12.63;8.17;;;12.10;74.30;;;;;;10229572;29;20246;-88
2021/12/24 14:51:29;;;;;;;12.53;7.90;;;12.70;73.20;;;;;;10245832;29;20623;-89
2021/12/24 14:56:37;;;;;;;11.10;7.37;;;12.40;73.50;;;;;;10245521;29;20288;-89
2021/12/24 15:01:44;;;;;;;10.40;7.40;;;12.60;73.20;;;;;;10348893;28;20322;-90
2021/12/24 15:06:50;;;;;;;13.43;7.57;;;12.50;73.30;;;;;;10394402;28;20200;-90
2021/12/24 15:11:54;;;;;;;12.03;7.43;;;12.40;73.20;;;;;;10411049;28;20241;-90
2021/12/24 15:16:58;;;;;;;14.77;8.67;;;12.10;74.20;;;;;;10392900;28;20221;-90
2021/12/24 15:22:01;;;;;;;27.00;12.37;;;12.20;69.30;;;;;;10410754;28;20259;-91
2021/12/24 15:27:03;;;;;;;9.63;6.73;;;10.80;70.60;;;;;;10410913;28;20233;-90
2021/12/24 15:32:06;;;;;;;9.60;6.80;;;11.10;75.70;;;;;;10410114;28;20250;-90
2021/12/24 15:37:09;;;;;;;13.10;7.40;;;11.90;75.00;;;;;;10393268;28;20235;-90
2021/12/24 15:42:11;;;;;;;12.03;7.60;;;12.20;74.20;;;;;;10391897;28;20264;-90
2021/12/24 15:47:17;;;;;;;11.27;6.53;;;12.50;73.30;;;;;;10392250;28;20241;-90
2021/12/24 15:52:19;;;;;;;8.93;6.87;;;12.40;73.20;;;;;;10392565;28;20271;-90
2021/12/24 15:57:21;;;;;;;7.67;5.53;;;12.30;73.80;;;;;;10410015;28;20326;-91
2021/12/24 16:02:24;;;;;;;9.87;7.17;;;12.70;72.40;;;;;;10391782;28;20317;-90
2021/12/24 16:07:27;;;;;;;11.47;7.30;;;12.70;72.30;;;;;;10409921;28;20233;-90
2021/12/24 16:12:29;;;;;;;17.07;10.17;;;12.60;72.60;;;;;;10391571;28;20244;-90
2021/12/24 16:17:32;;;;;;;14.43;9.20;;;12.10;69.10;;;;;;10408819;28;20236;-90
2021/12/24 16:22:34;;;;;;;10.77;7.50;;;12.30;71.00;;;;;;10391318;28;20641;-90
2021/12/24 16:27:41;;;;;;;12.07;6.43;;;12.30;73.20;;;;;;10409545;28;20281;-91
2021/12/24 16:32:46;;;;;;;13.03;7.20;;;12.10;73.20;;;;;;10408171;28;20336;-90
2021/12/24 16:37:52;;;;;;;10.13;6.30;;;12.60;72.40;;;;;;10409376;28;20282;-90
2021/12/24 16:42:58;;;;;;;11.10;6.93;;;12.70;71.50;;;;;;10408666;28;20230;-91
2021/12/24 16:48:02;;;;;;;11.73;8.03;;;12.60;71.30;;;;;;10390618;28;20249;-90
2021/12/24 16:53:06;;;;;;;10.30;6.67;;;12.70;69.90;;;;;;10410561;28;20289;-91
2021/12/24 16:58:09;;;;;;;9.80;6.73;;;12.80;71.50;;;;;;10416277;28;20312;-90
2021/12/24 17:03:13;;;;;;;16.07;10.33;;;12.90;70.70;;;;;;10397878;28;20300;-91
2021/12/24 17:08:16;;;;;;;10.73;6.80;;;12.40;68.60;;;;;;10398178;28;20210;-91
2021/12/24 17:13:19;;;;;;;8.67;7.00;;;12.10;73.30;;;;;;10398471;28;20241;-90
2021/12/24 17:18:21;;;;;;;10.03;7.23;;;12.70;70.70;;;;;;10380671;28;20262;-90
2021/12/24 17:23:24;;;;;;;7.73;6.10;;;13.00;70.20;;;;;;10397467;28;20239;-90
2021/12/24 17:28:26;;;;;;;11.77;8.63;;;12.70;71.00;;;;;;10398295;28;20238;-90
2021/12/24 17:33:29;;;;;;;7.70;6.10;;;12.30;67.30;;;;;;10396654;28;20621;-90
2021/12/24 17:38:31;;;;;;;9.93;7.27;;;12.50;71.00;;;;;;10414609;28;20335;-91
2021/12/24 17:43:34;;;;;;;11.73;8.07;;;13.00;69.60;;;;;;10414961;28;20659;-91
2021/12/24 17:48:37;;;;;;;8.13;6.37;;;13.00;69.60;;;;;;10396732;28;20242;-90
2021/12/24 17:53:42;;;;;;;10.17;7.10;;;12.80;69.90;;;;;;10396057;28;20206;-90
2021/12/24 17:58:45;;;;;;;9.50;6.67;;;12.80;70.10;;;;;;10414313;28;20311;-91
2021/12/24 18:03:48;;;;;;;7.53;5.77;;;12.70;68.50;;;;;;10414158;28;20293;-90
2021/12/24 18:08:52;;;;;;;7.47;5.80;;;12.50;71.30;;;;;;10413834;28;20655;-91
2021/12/24 18:13:55;;;;;;;7.50;5.63;;;12.60;71.10;;;;;;10394949;28;20685;-91
2021/12/24 18:18:57;;;;;;;8.70;6.40;;;12.70;70.20;;;;;;10395096;28;20661;-90
2021/12/24 18:24:05;;;;;;;11.83;9.10;;;12.40;70.00;;;;;;10395713;28;20243;-91
2021/12/24 18:29:08;;;;;;;13.37;8.87;;;11.50;67.40;;;;;;10395899;28;20620;-91
2021/12/24 18:34:11;;;;;;;12.00;8.60;;;11.20;71.60;;;;;;10413521;28;20309;-90
2021/12/24 18:39:14;;;;;;;7.67;5.77;;;11.30;72.60;;;;;;10454332;28;20636;-91
2021/12/24 18:44:18;;;;;;;8.37;6.03;;;12.60;70.70;;;;;;10436262;28;20286;-90
2021/12/24 18:49:20;;;;;;;7.07;5.53;;;12.60;70.00;;;;;;10453557;28;20253;-90
2021/12/24 18:54:23;;;;;;;7.10;5.03;;;12.60;70.80;;;;;;10452666;28;20243;-91
2021/12/24 18:59:25;;;;;;;8.30;5.87;;;12.70;69.90;;;;;;10452612;28;20327;-91
2021/12/24 19:04:28;;;;;;;12.63;9.57;;;12.50;70.80;;;;;;10435470;28;20253;-90
2021/12/24 19:09:30;;;;;;;11.00;7.97;;;11.80;66.20;;;;;;10418306;28;20288;-90
2021/12/24 19:14:33;;;;;;;11.27;7.83;;;10.00;74.90;;;;;;10433930;28;20665;-91
2021/12/24 19:19:36;;;;;;;5.60;5.10;;;8.30;79.50;;;;;;10452098;28;20262;-90
2021/12/24 19:24:38;;;;;;;11.03;7.43;;;9.10;81.30;;;;;;10452232;28;20238;-90
2021/12/24 19:29:41;;;;;;;9.90;6.50;;;5.10;85.90;;;;;;10434344;28;20272;-90
2021/12/24 19:34:44;;;;;;;7.53;4.00;;;3.60;94.20;;;;;;10432957;28;20690;-90
2021/12/24 19:39:49;;;;;;;6.27;3.97;;;2.90;99.90;;;;;;10434070;28;20254;-90
2021/12/24 19:44:52;;;;;;;5.10;4.13;;;3.80;99.50;;;;;;10416624;28;20268;-90
2021/12/24 19:49:54;;;;;;;7.17;4.87;;;4.00;99.90;;;;;;10434118;28;20231;-91
2021/12/24 19:54:57;;;;;;;3.67;2.83;;;3.80;99.90;;;;;;10433486;28;20262;-91
2021/12/24 19:59:59;;;;;;;3.33;2.33;;;3.80;96.10;;;;;;10433114;28;20262;-90
2021/12/24 20:05:03;;;;;;;5.03;4.23;;;2.50;99.60;;;;;;10451470;28;20235;-91
2021/12/24 20:10:08;;;;;;;3.17;2.10;;;3.00;99.90;;;;;;10451026;28;20288;-91
2021/12/24 20:15:13;;;;;;;5.63;4.50;;;1.80;99.90;;;;;;10450200;28;20265;-91
2021/12/24 20:20:17;;;;;;;3.10;2.07;;;3.90;99.90;;;;;;10416060;28;20731;-92
2021/12/24 20:25:19;;;;;;;4.80;2.80;;;3.90;94.50;;;;;;10450086;28;20281;-91
2021/12/24 20:30:23;;;;;;;4.03;2.43;;;5.60;91.20;;;;;;10438184;28;20721;-90
2021/12/24 20:35:27;;;;;;;6.80;4.33;;;3.00;96.20;;;;;;10441188;28;20314;-91
2021/12/24 20:40:30;;;;;;;3.70;2.37;;;4.70;99.30;;;;;;10440783;28;20741;-91
2021/12/24 20:45:33;;;;;;;12.67;6.40;;;2.30;94.90;;;;;;10458564;28;20653;-92
2021/12/24 20:50:36;;;;;;;6.30;4.77;;;4.30;99.90;;;;;;10439791;28;20264;-91
2021/12/24 20:55:40;;;;;;;14.40;5.00;;;3.60;99.90;;;;;;10441001;28;20280;-91
2021/12/24 21:00:43;;;;;;;6.43;3.60;;;2.40;94.20;;;;;;10423277;28;20320;-91
2021/12/24 21:05:47;;;;;;;8.53;3.80;;;3.90;99.60;;;;;;10458578;28;20749;-90
2021/12/24 21:10:49;;;;;;;6.37;3.63;;;1.20;96.00;;;;;;10458676;28;20598;-91
2021/12/24 21:15:53;;;;;;;8.90;4.27;;;2.40;99.90;;;;;;10440744;28;20723;-90
2021/12/24 21:20:56;;;;;;;6.27;4.27;;;2.80;99.90;;;;;;10457845;28;20262;-90
2021/12/24 21:26:00;;;;;;;5.37;3.47;;;5.50;99.90;;;;;;10458274;28;20257;-90
2021/12/24 21:31:02;;;;;;;4.33;2.20;;;3.20;91.30;;;;;;10439076;28;20238;-90
2021/12/24 21:36:05;;;;;;;16.53;8.93;;;2.30;90.90;;;;;;10456529;28;20230;-90
2021/12/24 21:41:07;;;;;;;6.53;3.00;;;2.60;91.40;;;;;;10438277;28;20281;-90
2021/12/24 21:46:10;;;;;;;3.67;2.40;;;2.00;85.40;;;;;;10457001;28;20240;-90
2021/12/24 21:51:13;;;;;;;2.33;1.47;;;2.20;85.30;;;;;;10439913;28;20689;-90
2021/12/24 21:56:16;;;;;;;2.47;1.70;;;1.60;89.20;;;;;;10422605;28;20750;-90
2021/12/24 22:01:20;;;;;;;3.67;2.33;;;2.30;93.90;;;;;;10457207;28;20262;-89
2021/12/24 22:11:34;;;;;;;2.83;1.33;;;-1.70;95.70;;;;;;10496939;28;20207;-81
2021/12/24 22:16:37;;;;;;;5.37;2.00;;;0.50;99.90;;;;;;10448296;28;20215;-81
2021/12/24 22:21:54;;;;;;;3.00;1.40;;;3.00;99.90;;;;;;10453959;28;20227;-81
2021/12/24 22:26:56;;;;;;;4.63;2.07;;;3.30;99.90;;;;;;10469444;28;20207;-81
2021/12/24 22:31:59;;;;;;;1.80;1.47;;;4.40;99.90;;;;;;10446272;28;20246;-82
2021/12/24 22:37:01;;;;;;;3.23;1.47;;;2.90;99.90;;;;;;9764647;28;10000729;-82
2021/12/24 22:42:05;;;;;;;4.63;1.73;;;4.10;93.70;;;;;;10466617;28;20250;-82
2021/12/24 22:47:07;;;;;;;2.20;1.40;;;6.00;98.70;;;;;;10431487;28;20211;-82
2021/12/24 22:52:15;;;;;;;3.00;1.40;;;8.50;99.90;;;;;;10468039;28;20277;-82
2021/12/24 22:57:18;;;;;;;4.47;2.20;;;11.40;85.20;;;;;;10444002;28;20203;-82
2021/12/24 23:02:20;;;;;;;2.17;1.50;;;10.70;91.10;;;;;;10465775;28;20288;-81
2021/12/24 23:07:22;;;;;;;2.60;1.80;;;10.20;99.90;;;;;;10461247;28;20205;-82
2021/12/24 23:12:25;;;;;;;2.60;1.57;;;9.90;99.90;;;;;;10468048;28;20702;-82
2021/12/24 23:17:28;;;;;;;7.40;1.90;;;9.90;91.00;;;;;;10443343;28;20251;-81
2021/12/24 23:22:30;;;;;;;2.00;1.47;;;9.50;99.90;;;;;;10434295;28;20645;-81
2021/12/24 23:27:33;;;;;;;3.50;1.90;;;;;;;;;;10430928;28;20235;-82
2021/12/24 23:32:36;;;;;;;4.27;2.63;;;;;;;;;;10431284;28;20721;-82
2021/12/24 23:37:39;;;;;;;2.83;1.93;;;;;;;;;;10430405;28;20609;-82
2021/12/24 23:42:44;;;;;;;2.03;1.43;;;11.00;99.90;;;;;;10445299;28;20248;-82
2021/12/24 23:47:49;;;;;;;3.63;1.80;;;11.40;99.90;;;;;;10471022;28;20274;-82
2021/12/24 23:53:04;;;;;;;3.30;1.73;;;12.60;99.90;;;;;;10478518;28;20291;-82
2021/12/24 23:58:08;;;;;;;3.53;1.60;;;12.60;99.90;;;;;;10454963;28;20244;-82
